createdAt,value
2018-06-05T00:01:54.473Z,83.54
2018-06-05T00:04:23.766Z,83.04
2018-06-05T00:06:52.991Z,83.26
2018-06-05T00:09:22.213Z,83.99
2018-06-05T00:11:51.470Z,84.09
2018-06-05T00:14:20.694Z,83.33
2018-06-05T00:16:49.937Z,83.37
2018-06-05T00:19:19.168Z,81.76
2018-06-05T00:21:48.395Z,83.71
2018-06-05T00:24:17.605Z,83.92
2018-06-05T00:26:46.865Z,84.44
2018-06-05T00:29:16.077Z,84.58
2018-06-05T00:31:45.298Z,84.06
2018-06-05T00:34:14.590Z,85.57
2018-06-05T00:36:43.907Z,86.13
2018-06-05T00:39:13.145Z,85.75
2018-06-05T00:41:42.401Z,83.52
2018-06-05T00:44:11.622Z,86.13
2018-06-05T00:46:41.203Z,86.51
2018-06-05T00:49:10.409Z,86.90
2018-06-05T00:51:56.829Z,87.00
2018-06-05T00:54:26.058Z,86.52
2018-06-05T00:56:55.290Z,87.46
2018-06-05T00:59:24.528Z,87.44
2018-06-05T01:01:53.756Z,87.25
2018-06-05T01:04:22.973Z,86.77
2018-06-05T01:06:52.211Z,87.11
2018-06-05T01:09:21.442Z,88.45
2018-06-05T01:11:50.763Z,88.44
2018-06-05T01:14:20.001Z,86.26
2018-06-05T01:16:49.229Z,87.59
2018-06-05T01:19:18.484Z,87.12
2018-06-05T01:21:47.697Z,88.10
2018-06-05T01:24:16.972Z,88.52
2018-06-05T01:26:46.193Z,88.58
2018-06-05T01:29:15.625Z,88.12
2018-06-05T01:31:44.875Z,88.10
2018-06-05T01:34:14.091Z,87.86
2018-06-05T01:36:43.302Z,88.33
2018-06-05T01:39:12.794Z,88.07
2018-06-05T01:41:42.022Z,86.60
2018-06-05T01:44:11.262Z,85.86
2018-06-05T01:46:40.487Z,86.70
2018-06-05T01:49:09.720Z,87.41
2018-06-05T01:51:38.957Z,88.06
2018-06-05T01:54:08.183Z,87.21
2018-06-05T01:56:37.414Z,88.00
2018-06-05T01:59:06.652Z,88.71
2018-06-05T02:01:35.867Z,89.27
2018-06-05T02:04:05.089Z,88.24
2018-06-05T02:06:34.314Z,88.54
2018-06-05T02:09:03.568Z,89.39
2018-06-05T02:11:32.813Z,90.34
2018-06-05T02:14:02.047Z,89.52
2018-06-05T02:16:31.273Z,87.13
2018-06-05T02:19:00.291Z,87.04
2018-06-05T02:21:29.561Z,88.14
2018-06-05T02:23:58.783Z,89.01
2018-06-05T02:26:27.948Z,89.60
2018-06-05T02:28:57.264Z,87.63
2018-06-05T02:31:26.506Z,88.06
2018-06-05T02:33:55.763Z,89.41
2018-06-05T02:36:24.980Z,90.58
2018-06-05T02:38:54.246Z,90.54
2018-06-05T02:41:23.602Z,90.20
2018-06-05T02:43:52.881Z,89.57
2018-06-05T02:46:22.091Z,89.86
2018-06-05T02:48:51.335Z,89.52
2018-06-05T02:51:20.584Z,89.66
2018-06-05T02:53:49.878Z,90.05
2018-06-05T02:56:19.118Z,90.64
2018-06-05T02:58:48.135Z,89.92
2018-06-05T03:01:17.413Z,89.91
2018-06-05T03:03:46.634Z,89.47
2018-06-05T03:06:15.862Z,90.03
2018-06-05T03:08:45.187Z,91.11
2018-06-05T03:11:16.320Z,90.55
2018-06-05T03:13:46.810Z,88.51
2018-06-05T03:16:16.040Z,88.16
2018-06-05T03:18:45.284Z,89.27
2018-06-05T03:21:14.510Z,90.76
2018-06-05T03:23:43.905Z,90.11
2018-06-05T03:26:13.136Z,89.28
2018-06-05T03:28:42.343Z,87.40
2018-06-05T03:31:11.548Z,87.09
2018-06-05T03:33:40.750Z,86.68
2018-06-05T03:36:09.973Z,86.38
2018-06-05T03:38:39.291Z,86.33
2018-06-05T03:41:08.520Z,86.43
2018-06-05T03:43:37.826Z,85.90
2018-06-05T03:46:07.143Z,86.40
2018-06-05T03:48:36.372Z,86.08
2018-06-05T03:51:05.643Z,85.35
2018-06-05T03:53:34.871Z,85.35
2018-06-05T03:56:04.138Z,84.54
2018-06-05T03:58:33.377Z,84.54
2018-06-05T04:01:02.580Z,84.52
2018-06-05T04:03:31.802Z,84.58
2018-06-05T04:06:01.131Z,83.67
2018-06-05T04:08:30.370Z,84.25
2018-06-05T04:10:59.631Z,83.93
2018-06-05T04:13:28.890Z,82.91
2018-06-05T04:15:58.105Z,81.11
2018-06-05T04:18:27.402Z,80.12
2018-06-05T04:20:57.467Z,80.16
2018-06-05T04:23:26.680Z,79.00
2018-06-05T04:25:55.907Z,77.97
2018-06-05T04:28:25.145Z,77.81
2018-06-05T04:30:54.378Z,76.69
2018-06-05T04:33:23.616Z,76.08
2018-06-05T04:35:52.962Z,76.03
2018-06-05T04:38:22.263Z,74.87
2018-06-05T04:40:51.588Z,74.34
2018-06-05T04:43:20.881Z,73.30
2018-06-05T04:45:50.411Z,72.79
2018-06-05T04:48:19.626Z,72.52
2018-06-05T04:50:48.919Z,71.80
2018-06-05T04:53:18.219Z,70.71
2018-06-05T04:55:47.467Z,64.91
2018-06-05T04:58:16.717Z,63.27
2018-06-05T05:00:46.041Z,58.77
2018-06-05T05:03:15.265Z,50.32
2018-06-05T05:05:44.494Z,54.57
2018-06-05T05:08:13.818Z,51.31
2018-06-05T05:10:43.052Z,46.97
2018-06-05T05:13:12.259Z,45.66
2018-06-05T05:15:41.530Z,50.28
2018-06-05T05:18:10.750Z,55.37
2018-06-05T05:20:40.037Z,50.27
2018-06-05T05:23:09.242Z,45.73
2018-06-05T05:25:38.511Z,42.73
2018-06-05T05:28:07.739Z,41.29
2018-06-05T05:30:37.060Z,39.95
2018-06-05T05:33:06.346Z,39.72
2018-06-05T05:35:35.647Z,37.44
2018-06-05T05:38:04.890Z,36.76
2018-06-05T05:40:34.165Z,36.92
2018-06-05T05:43:03.373Z,34.58
2018-06-05T05:45:32.599Z,34.56
2018-06-05T05:48:01.826Z,34.51
2018-06-05T05:50:31.046Z,33.54
2018-06-05T05:53:00.255Z,35.09
2018-06-05T05:55:29.481Z,33.79
2018-06-05T05:57:58.728Z,32.17
2018-06-05T06:00:27.920Z,32.94
2018-06-05T06:02:57.168Z,31.53
2018-06-05T06:05:26.390Z,32.59
2018-06-05T06:07:55.619Z,34.57
2018-06-05T06:10:24.834Z,32.70
2018-06-05T06:12:54.068Z,32.04
2018-06-05T06:15:23.320Z,32.75
2018-06-05T06:17:52.526Z,35.11
2018-06-05T06:20:21.735Z,32.60
2018-06-05T06:22:51.022Z,29.92
2018-06-05T06:25:20.238Z,28.58
2018-06-05T06:27:49.451Z,30.51
2018-06-05T06:30:18.691Z,31.15
2018-06-05T06:32:47.970Z,32.24
2018-06-05T06:35:17.190Z,29.28
2018-06-05T06:37:46.392Z,28.20
2018-06-05T06:40:15.619Z,27.20
2018-06-05T06:42:44.866Z,28.37
2018-06-05T06:45:13.841Z,28.46
2018-06-05T06:47:43.066Z,27.93
2018-06-05T06:50:12.354Z,26.73
2018-06-05T06:52:41.594Z,27.25
2018-06-05T06:55:10.818Z,29.24
2018-06-05T06:57:40.072Z,31.54
2018-06-05T07:00:09.335Z,28.77
2018-06-05T07:02:38.574Z,26.88
2018-06-05T07:05:07.850Z,26.60
2018-06-05T07:07:37.074Z,27.97
2018-06-05T07:10:06.338Z,29.34
2018-06-05T07:12:35.572Z,28.21
2018-06-05T07:15:04.887Z,24.99
2018-06-05T07:17:34.164Z,25.08
2018-06-05T07:20:03.390Z,25.76
2018-06-05T07:22:32.607Z,22.14
2018-06-05T07:25:01.824Z,25.40
2018-06-05T07:27:31.273Z,26.85
2018-06-05T07:30:00.478Z,26.62
2018-06-05T07:32:29.715Z,25.42
2018-06-05T07:34:58.942Z,27.23
2018-06-05T07:37:28.156Z,31.67
2018-06-05T07:39:57.391Z,26.84
2018-06-05T07:42:26.626Z,29.45
2018-06-05T07:44:55.848Z,27.36
2018-06-05T07:47:25.063Z,26.46
2018-06-05T07:49:54.349Z,28.68
2018-06-05T07:52:23.502Z,27.59
2018-06-05T07:54:52.807Z,28.54
2018-06-05T07:57:22.035Z,26.77
2018-06-05T07:59:51.273Z,24.39
2018-06-05T08:02:20.514Z,25.79
2018-06-05T08:04:49.794Z,25.94
2018-06-05T08:07:19.063Z,24.00
2018-06-05T08:09:48.302Z,26.84
2018-06-05T08:12:17.548Z,29.11
2018-06-05T08:14:46.762Z,25.80
2018-06-05T08:17:15.999Z,22.29
2018-06-05T08:19:45.223Z,23.36
2018-06-05T08:22:14.448Z,24.63
2018-06-05T08:24:43.662Z,25.32
2018-06-05T08:27:12.967Z,24.15
2018-06-05T08:29:42.171Z,23.48
2018-06-05T08:32:17.749Z,25.08
2018-06-05T08:34:46.982Z,27.61
2018-06-05T08:37:16.218Z,23.45
2018-06-05T08:39:45.503Z,26.34
2018-06-05T08:42:14.728Z,24.72
2018-06-05T08:44:43.929Z,23.51
2018-06-05T08:47:13.166Z,22.67
2018-06-05T08:49:42.400Z,23.12
2018-06-05T08:52:11.627Z,26.15
2018-06-05T08:54:40.839Z,25.61
2018-06-05T08:57:10.077Z,26.57
2018-06-05T08:59:39.292Z,25.85
2018-06-05T09:02:08.546Z,26.20
2018-06-05T09:04:37.774Z,26.30
2018-06-05T09:07:07.010Z,28.20
2018-06-05T09:09:36.316Z,28.49
2018-06-05T09:12:05.526Z,25.90
2018-06-05T09:14:34.750Z,22.32
2018-06-05T09:17:03.956Z,22.29
2018-06-05T09:19:33.230Z,24.96
2018-06-05T09:22:02.531Z,21.75
2018-06-05T09:24:31.760Z,27.45
2018-06-05T09:27:00.977Z,20.28
2018-06-05T09:29:30.199Z,19.78
2018-06-05T09:31:59.415Z,25.25
2018-06-05T09:34:28.662Z,20.51
2018-06-05T09:36:57.869Z,17.94
2018-06-05T09:39:27.153Z,23.54
2018-06-05T09:41:56.401Z,26.31
2018-06-05T09:44:25.474Z,23.68
2018-06-05T09:46:54.779Z,20.64
2018-06-05T09:49:23.995Z,23.12
2018-06-05T09:51:53.194Z,22.49
2018-06-05T09:54:22.443Z,25.65
2018-06-05T09:56:51.647Z,32.94
2018-06-05T09:59:20.861Z,24.49
2018-06-05T10:01:50.068Z,26.67
2018-06-05T10:04:19.281Z,23.00
2018-06-05T10:06:48.507Z,25.81
2018-06-05T10:09:17.721Z,26.18
2018-06-05T10:11:46.926Z,23.72
2018-06-05T10:14:16.150Z,28.30
2018-06-05T10:16:45.371Z,24.65
2018-06-05T10:19:14.594Z,27.83
2018-06-05T10:21:43.869Z,30.52
2018-06-05T10:24:13.166Z,38.05
2018-06-05T10:26:42.378Z,41.74
2018-06-05T10:29:11.965Z,39.55
2018-06-05T10:31:41.310Z,37.60
2018-06-05T10:34:10.446Z,33.91
2018-06-05T10:36:39.649Z,32.64
2018-06-05T10:39:08.953Z,34.84
2018-06-05T10:41:38.176Z,35.06
2018-06-05T10:44:07.391Z,36.25
2018-06-05T10:46:36.623Z,28.99
2018-06-05T10:49:05.895Z,33.05
2018-06-05T10:51:35.106Z,36.17
2018-06-05T10:54:04.342Z,39.54
2018-06-05T10:56:33.550Z,31.55
2018-06-05T10:59:02.876Z,33.34
2018-06-05T11:01:32.079Z,25.96
2018-06-05T11:04:01.356Z,27.56
2018-06-05T11:06:30.574Z,28.90
2018-06-05T11:08:59.853Z,23.23
2018-06-05T11:11:29.060Z,24.61
2018-06-05T11:13:58.370Z,18.38
2018-06-05T11:16:27.590Z,25.87
2018-06-05T11:18:56.815Z,25.52
2018-06-05T11:21:26.018Z,28.11
2018-06-05T11:23:55.242Z,30.13
2018-06-05T11:26:24.457Z,22.70
2018-06-05T11:28:53.668Z,23.34
2018-06-05T11:31:22.889Z,22.85
2018-06-05T11:33:52.101Z,23.98
2018-06-05T11:36:21.322Z,23.71
2018-06-05T11:38:50.554Z,21.15
2018-06-05T11:41:19.776Z,21.16
2018-06-05T11:43:48.983Z,26.33
2018-06-05T11:46:18.204Z,27.49
2018-06-05T11:48:47.421Z,23.68
2018-06-05T11:51:16.638Z,21.25
2018-06-05T11:53:45.905Z,24.21
2018-06-05T11:56:15.123Z,18.33
2018-06-05T11:58:44.390Z,16.65
2018-06-05T12:01:13.612Z,20.76
2018-06-05T12:03:42.847Z,26.00
2018-06-05T12:06:12.145Z,30.25
2018-06-05T12:08:41.358Z,30.55
2018-06-05T12:11:10.591Z,32.34
2018-06-05T12:13:39.814Z,31.99
2018-06-05T12:16:09.170Z,27.08
2018-06-05T12:18:38.383Z,26.47
2018-06-05T12:21:07.650Z,23.83
2018-06-05T12:23:36.863Z,25.71
2018-06-05T12:26:06.106Z,24.22
2018-06-05T12:28:35.356Z,28.28
2018-06-05T12:31:04.685Z,29.86
2018-06-05T12:33:33.864Z,29.98
2018-06-05T12:36:03.315Z,30.46
2018-06-05T12:38:32.538Z,30.46
2018-06-05T12:41:01.843Z,31.40
2018-06-05T12:43:31.082Z,29.89
2018-06-05T12:46:00.355Z,31.95
2018-06-05T12:48:29.602Z,33.29
2018-06-05T12:50:58.878Z,32.84
2018-06-05T12:53:28.081Z,31.81
2018-06-05T12:55:57.315Z,31.98
2018-06-05T12:58:26.534Z,31.72
2018-06-05T13:00:55.846Z,33.76
2018-06-05T13:03:25.074Z,31.74
2018-06-05T13:05:54.302Z,32.34
2018-06-05T13:08:23.543Z,32.18
2018-06-05T13:10:52.778Z,30.89
2018-06-05T13:13:22.062Z,32.23
2018-06-05T13:15:51.384Z,28.80
2018-06-05T13:18:20.597Z,30.62
2018-06-05T13:20:49.871Z,28.66
2018-06-05T13:23:19.109Z,28.85
2018-06-05T13:25:48.342Z,31.96
2018-06-05T13:28:17.621Z,32.32
2018-06-05T13:30:46.906Z,33.78
2018-06-05T13:33:16.140Z,33.60
2018-06-05T13:35:45.362Z,31.80
2018-06-05T13:38:14.734Z,32.44
2018-06-05T13:40:44.023Z,32.10
2018-06-05T13:43:13.320Z,29.50
2018-06-05T13:45:42.535Z,30.14
2018-06-05T13:48:11.734Z,31.58
2018-06-05T13:50:40.958Z,29.29
2018-06-05T13:53:10.171Z,32.81
2018-06-05T13:55:39.398Z,32.00
2018-06-05T13:58:08.614Z,33.29
2018-06-05T14:00:37.839Z,29.81
2018-06-05T14:03:07.114Z,27.46
2018-06-05T14:05:36.337Z,27.52
2018-06-05T14:08:05.805Z,27.47
2018-06-05T14:10:35.018Z,29.51
2018-06-05T14:13:04.259Z,31.11
2018-06-05T14:15:33.476Z,27.37
2018-06-05T14:18:02.738Z,27.02
2018-06-05T14:20:32.067Z,31.66
2018-06-05T14:23:01.270Z,28.89
2018-06-05T14:25:30.474Z,30.53
2018-06-05T14:27:59.710Z,29.24
2018-06-05T14:30:28.993Z,29.11
2018-06-05T14:32:58.302Z,30.46
2018-06-05T14:35:27.538Z,28.24
2018-06-05T14:37:56.786Z,28.61
2018-06-05T14:40:26.062Z,30.44
2018-06-05T14:42:55.273Z,31.18
2018-06-05T14:45:24.551Z,32.28
2018-06-05T14:47:53.750Z,31.26
2018-06-05T14:50:22.994Z,30.82
2018-06-05T14:52:52.306Z,30.77
2018-06-05T14:55:21.506Z,28.12
2018-06-05T14:57:50.752Z,29.63
2018-06-05T15:00:20.011Z,28.98
2018-06-05T15:02:49.301Z,31.07
2018-06-05T15:05:18.517Z,32.68
2018-06-05T15:07:47.736Z,34.52
2018-06-05T15:10:16.943Z,33.88
2018-06-05T15:12:46.227Z,34.67
2018-06-05T15:15:15.451Z,33.99
2018-06-05T15:17:44.691Z,31.99
2018-06-05T15:20:13.894Z,33.84
2018-06-05T15:22:43.200Z,33.40
2018-06-05T15:25:12.193Z,31.65
2018-06-05T15:27:41.451Z,32.12
2018-06-05T15:30:10.662Z,32.17
2018-06-05T15:32:39.903Z,31.99
2018-06-05T15:35:09.123Z,32.43
2018-06-05T15:37:38.374Z,28.78
2018-06-05T15:40:07.603Z,29.77
2018-06-05T15:42:36.882Z,31.41
2018-06-05T15:45:06.306Z,29.30
2018-06-05T15:47:35.527Z,29.55
2018-06-05T15:50:04.971Z,30.12
2018-06-05T15:52:34.185Z,30.61
2018-06-05T15:55:03.424Z,28.64
2018-06-05T15:57:32.660Z,29.99
2018-06-05T16:00:01.879Z,31.15
2018-06-05T16:02:31.112Z,31.47
2018-06-05T16:05:00.335Z,28.41
2018-06-05T16:07:29.578Z,28.29
2018-06-05T16:09:58.781Z,29.18
2018-06-05T16:12:28.004Z,29.37
2018-06-05T16:14:57.206Z,30.57
2018-06-05T16:17:26.416Z,30.44
2018-06-05T16:19:55.631Z,32.62
2018-06-05T16:22:24.856Z,32.99
2018-06-05T16:54:25.230Z,32.01
2018-06-05T16:56:54.425Z,34.11
2018-06-05T16:59:23.662Z,33.63
2018-06-05T17:01:52.858Z,33.95
2018-06-05T17:04:22.133Z,33.01
2018-06-05T17:06:51.308Z,33.46
2018-06-05T17:09:20.545Z,34.78
2018-06-05T17:11:49.785Z,33.09
2018-06-05T17:14:18.995Z,34.96
2018-06-05T17:16:48.231Z,32.87
2018-06-05T17:19:17.461Z,33.26
2018-06-05T17:21:46.673Z,33.86
2018-06-05T17:24:15.879Z,33.47
2018-06-05T17:26:45.114Z,34.19
2018-06-05T17:29:14.371Z,33.51
2018-06-05T17:31:43.566Z,33.36
2018-06-05T17:34:12.810Z,32.86
2018-06-05T17:36:42.017Z,34.69
2018-06-05T17:39:11.244Z,33.84
2018-06-05T17:41:40.627Z,34.22
2018-06-05T17:44:09.867Z,34.63
2018-06-05T17:46:39.121Z,35.94
2018-06-05T17:49:08.587Z,35.50
2018-06-05T17:51:37.795Z,35.59
2018-06-05T17:54:37.756Z,36.07
2018-06-05T17:57:08.256Z,37.20
2018-06-05T17:59:37.459Z,36.58
2018-06-05T18:02:06.785Z,36.35
2018-06-05T18:04:35.989Z,37.16
2018-06-05T18:07:05.194Z,37.71
2018-06-05T18:09:40.754Z,37.94
2018-06-05T18:12:09.988Z,38.16
2018-06-05T18:14:39.228Z,37.78
2018-06-05T18:17:08.463Z,38.33
2018-06-05T18:19:37.727Z,39.42
2018-06-05T18:22:07.019Z,39.79
2018-06-05T18:24:36.342Z,39.94
2018-06-05T18:27:05.647Z,40.36
2018-06-05T18:29:34.867Z,40.34
2018-06-05T18:32:04.097Z,41.07
2018-06-05T18:34:33.310Z,41.92
2018-06-05T18:37:02.551Z,41.77
2018-06-05T18:39:31.794Z,42.05
2018-06-05T18:42:01.055Z,43.85
2018-06-05T18:44:30.295Z,43.91
2018-06-05T18:46:59.510Z,45.70
2018-06-05T18:49:28.874Z,46.55
2018-06-05T18:51:58.097Z,47.63
2018-06-05T18:54:27.299Z,48.69
2018-06-05T18:56:56.514Z,50.09
2018-06-05T18:59:25.788Z,50.33
2018-06-05T19:01:55.078Z,52.19
2018-06-05T19:04:24.318Z,53.09
2018-06-05T19:06:53.596Z,54.91
2018-06-05T19:09:22.857Z,55.69
2018-06-05T19:11:52.088Z,55.63
2018-06-05T19:14:21.306Z,56.88
2018-06-05T19:16:50.591Z,56.46
2018-06-05T19:19:19.880Z,58.21
2018-06-05T19:21:49.086Z,60.15
2018-06-05T19:24:18.423Z,59.62
2018-06-05T19:26:47.625Z,60.44
2018-06-05T19:29:17.013Z,59.80
2018-06-05T19:31:46.429Z,60.91
2018-06-05T19:34:15.638Z,60.52
2018-06-05T19:36:44.834Z,61.36
2018-06-05T19:39:14.131Z,61.42
2018-06-05T19:41:43.339Z,62.51
2018-06-05T19:44:12.543Z,62.35
2018-06-05T19:46:41.776Z,62.28
2018-06-05T19:49:11.011Z,63.54
2018-06-05T19:51:40.288Z,63.75
2018-06-05T19:54:09.561Z,64.69
2018-06-05T19:56:38.798Z,64.13
2018-06-05T19:59:08.055Z,64.47
2018-06-05T20:01:37.265Z,65.05
2018-06-05T20:04:06.709Z,63.99
2018-06-05T20:06:35.931Z,62.15
2018-06-05T20:09:07.403Z,61.40
2018-06-05T20:11:36.659Z,61.93
2018-06-05T20:14:05.879Z,62.10
2018-06-05T20:16:35.128Z,63.47
2018-06-05T20:19:04.435Z,64.71
2018-06-05T20:21:33.998Z,65.68
2018-06-05T20:24:03.227Z,64.84
2018-06-05T20:26:32.426Z,66.04
2018-06-05T20:29:01.656Z,67.07
2018-06-05T20:31:32.095Z,67.59
2018-06-05T20:34:01.301Z,68.71
2018-06-05T20:36:30.531Z,68.62
2018-06-05T20:38:59.765Z,69.43
2018-06-05T20:41:28.959Z,68.88
2018-06-05T20:43:58.181Z,66.59
2018-06-05T20:46:27.391Z,64.86
2018-06-05T20:48:56.674Z,65.75
2018-06-05T20:51:26.005Z,68.91
2018-06-05T20:53:55.278Z,70.45
2018-06-05T20:56:24.714Z,70.27
2018-06-05T20:59:00.395Z,68.55
2018-06-05T21:01:29.683Z,69.75
2018-06-05T21:03:58.952Z,68.23
2018-06-05T21:06:28.201Z,70.62
2018-06-05T21:08:57.438Z,72.04
2018-06-05T21:11:26.702Z,71.78
2018-06-05T21:13:55.923Z,71.07
2018-06-05T21:16:25.214Z,69.73
2018-06-05T21:18:54.430Z,69.01
2018-06-05T21:21:23.874Z,66.77
2018-06-05T21:23:53.083Z,67.52
2018-06-05T21:26:22.327Z,70.32
2018-06-05T21:28:51.611Z,71.80
2018-06-05T21:31:20.852Z,71.59
2018-06-05T21:33:50.080Z,71.87
2018-06-05T21:36:19.377Z,72.68
2018-06-05T21:38:48.627Z,69.79
2018-06-05T21:41:17.851Z,69.66
2018-06-05T21:43:47.066Z,71.87
2018-06-05T21:46:16.287Z,72.56
2018-06-05T21:48:45.487Z,72.52
2018-06-05T21:51:14.725Z,72.83
2018-06-05T21:53:43.930Z,73.33
2018-06-05T21:56:13.155Z,72.73
2018-06-05T21:58:42.431Z,74.47
2018-06-05T22:01:11.622Z,73.91
2018-06-05T22:03:40.855Z,74.61
2018-06-05T22:06:10.091Z,75.04
2018-06-05T22:08:39.318Z,74.42
2018-06-05T22:11:08.756Z,74.28
2018-06-05T22:13:37.978Z,74.60
2018-06-05T22:16:07.217Z,74.92
2018-06-05T22:18:36.434Z,75.04
2018-06-05T22:21:05.658Z,73.55
2018-06-05T22:23:34.858Z,73.50
2018-06-05T22:26:04.203Z,75.37
2018-06-05T22:28:33.450Z,74.59
2018-06-05T22:31:02.672Z,74.65
2018-06-05T22:33:31.890Z,75.26
2018-06-05T22:36:01.169Z,72.95
2018-06-05T22:38:30.427Z,73.19
2018-06-05T22:40:59.630Z,75.03
2018-06-05T22:43:28.857Z,74.42
2018-06-05T22:45:58.449Z,76.37
2018-06-05T22:48:27.664Z,76.28
2018-06-05T22:50:56.979Z,74.99
2018-06-05T22:53:26.318Z,74.54
2018-06-05T22:55:55.553Z,77.15
2018-06-05T22:58:24.813Z,76.75
2018-06-05T23:00:54.026Z,78.80
2018-06-05T23:03:23.322Z,78.84
2018-06-05T23:05:52.518Z,78.10
2018-06-05T23:08:21.745Z,78.86
2018-06-05T23:10:51.017Z,78.80
2018-06-05T23:13:20.234Z,78.95
2018-06-05T23:15:49.426Z,78.37
2018-06-05T23:18:18.664Z,79.67
2018-06-05T23:20:47.871Z,79.72
2018-06-05T23:23:17.103Z,79.87
2018-06-05T23:25:46.334Z,77.95
2018-06-05T23:28:15.557Z,77.07
2018-06-05T23:30:44.832Z,78.69
2018-06-05T23:33:14.046Z,79.34
2018-06-05T23:35:43.259Z,79.75
2018-06-05T23:38:12.494Z,79.90
2018-06-05T23:40:41.747Z,80.93
2018-06-05T23:43:11.060Z,80.14
2018-06-05T23:45:40.297Z,79.87
2018-06-05T23:48:09.506Z,81.17
2018-06-05T23:50:38.732Z,81.97
2018-06-05T23:53:07.959Z,81.24
2018-06-05T23:55:37.154Z,80.01
2018-06-05T23:58:06.464Z,77.87
